sensor_id;sensor_type;location;lat;lon;timestamp;P1;durP1;ratioP1;P2;durP2;ratioP2
17372;SDS011;8803;48.116;11.590;2023-12-29T00:00:38;1.70;;;1.23;;
17372;SDS011;8803;48.116;11.590;2023-12-29T00:02:43;1.80;;;1.40;;
17372;SDS011;8803;48.116;11.590;2023-12-29T00:04:49;2.40;;;1.73;;
17372;SDS011;8803;48.116;11.590;2023-12-29T00:07:02;2.17;;;1.47;;
17372;SDS011;8803;48.116;11.590;2023-12-29T00:09:07;2.00;;;1.30;;
17372;SDS011;8803;48.116;11.590;2023-12-29T00:11:18;1.33;;;1.10;;
17372;SDS011;8803;48.116;11.590;2023-12-29T00:13:24;2.43;;;1.20;;
17372;SDS011;8803;48.116;11.590;2023-12-29T00:15:28;1.10;;;1.00;;
17372;SDS011;8803;48.116;11.590;2023-12-29T00:17:33;1.23;;;1.13;;
17372;SDS011;8803;48.116;11.590;2023-12-29T00:19:46;1.47;;;1.20;;
17372;SDS011;8803;48.116;11.590;2023-12-29T00:21:51;1.63;;;1.20;;
17372;SDS011;8803;48.116;11.590;2023-12-29T00:23:56;1.27;;;1.10;;
17372;SDS011;8803;48.116;11.590;2023-12-29T00:26:00;1.97;;;1.40;;
17372;SDS011;8803;48.116;11.590;2023-12-29T00:28:06;1.40;;;1.30;;
17372;SDS011;8803;48.116;11.590;2023-12-29T00:30:13;1.20;;;1.10;;
17372;SDS011;8803;48.116;11.590;2023-12-29T00:32:22;2.00;;;1.50;;
17372;SDS011;8803;48.116;11.590;2023-12-29T00:34:27;2.20;;;1.27;;
17372;SDS011;8803;48.116;11.590;2023-12-29T00:36:31;1.47;;;1.20;;
17372;SDS011;8803;48.116;11.590;2023-12-29T00:38:36;1.90;;;1.50;;
17372;SDS011;8803;48.116;11.590;2023-12-29T00:40:41;1.77;;;1.60;;
17372;SDS011;8803;48.116;11.590;2023-12-29T00:42:46;2.00;;;1.47;;
17372;SDS011;8803;48.116;11.590;2023-12-29T00:44:50;2.13;;;1.40;;
17372;SDS011;8803;48.116;11.590;2023-12-29T00:46:55;1.50;;;1.37;;
17372;SDS011;8803;48.116;11.590;2023-12-29T00:49:08;1.60;;;1.50;;
17372;SDS011;8803;48.116;11.590;2023-12-29T00:51:13;2.23;;;1.70;;
17372;SDS011;8803;48.116;11.590;2023-12-29T00:53:19;2.13;;;1.60;;
17372;SDS011;8803;48.116;11.590;2023-12-29T00:55:23;2.23;;;1.80;;
17372;SDS011;8803;48.116;11.590;2023-12-29T00:57:29;2.03;;;1.40;;
17372;SDS011;8803;48.116;11.590;2023-12-29T00:59:36;1.90;;;1.70;;
17372;SDS011;8803;48.116;11.590;2023-12-29T01:01:41;1.80;;;1.70;;
17372;SDS011;8803;48.116;11.590;2023-12-29T01:03:47;1.97;;;1.70;;
17372;SDS011;8803;48.116;11.590;2023-12-29T01:05:53;1.60;;;1.40;;
17372;SDS011;8803;48.116;11.590;2023-12-29T01:07:59;2.03;;;1.53;;
17372;SDS011;8803;48.116;11.590;2023-12-29T01:10:12;3.83;;;3.27;;
17372;SDS011;8803;48.116;11.590;2023-12-29T01:12:18;7.97;;;5.23;;
17372;SDS011;8803;48.116;11.590;2023-12-29T01:14:22;4.93;;;4.27;;
17372;SDS011;8803;48.116;11.590;2023-12-29T01:16:27;3.70;;;1.70;;
17372;SDS011;8803;48.116;11.590;2023-12-29T01:18:32;2.27;;;1.97;;
17372;SDS011;8803;48.116;11.590;2023-12-29T01:20:38;1.97;;;1.60;;
17372;SDS011;8803;48.116;11.590;2023-12-29T01:22:43;2.30;;;1.70;;
17372;SDS011;8803;48.116;11.590;2023-12-29T01:24:47;2.30;;;1.70;;
17372;SDS011;8803;48.116;11.590;2023-12-29T01:26:52;1.50;;;1.40;;
17372;SDS011;8803;48.116;11.590;2023-12-29T01:28:58;1.77;;;1.43;;
17372;SDS011;8803;48.116;11.590;2023-12-29T01:31:03;1.83;;;1.67;;
17372;SDS011;8803;48.116;11.590;2023-12-29T01:33:10;2.27;;;1.70;;
17372;SDS011;8803;48.116;11.590;2023-12-29T01:35:15;1.90;;;1.60;;
17372;SDS011;8803;48.116;11.590;2023-12-29T01:37:21;2.50;;;1.83;;
17372;SDS011;8803;48.116;11.590;2023-12-29T01:39:28;2.20;;;1.63;;
17372;SDS011;8803;48.116;11.590;2023-12-29T01:41:33;2.00;;;1.60;;
17372;SDS011;8803;48.116;11.590;2023-12-29T01:44:01;2.83;;;1.80;;
17372;SDS011;8803;48.116;11.590;2023-12-29T01:46:25;2.13;;;1.93;;
17372;SDS011;8803;48.116;11.590;2023-12-29T01:48:32;2.40;;;1.60;;
17372;SDS011;8803;48.116;11.590;2023-12-29T01:50:37;1.90;;;1.67;;
17372;SDS011;8803;48.116;11.590;2023-12-29T01:52:50;2.23;;;1.83;;
17372;SDS011;8803;48.116;11.590;2023-12-29T01:54:58;1.57;;;1.47;;
17372;SDS011;8803;48.116;11.590;2023-12-29T01:57:12;2.03;;;1.50;;
17372;SDS011;8803;48.116;11.590;2023-12-29T01:59:18;3.80;;;1.70;;
17372;SDS011;8803;48.116;11.590;2023-12-29T02:01:23;2.47;;;1.50;;
17372;SDS011;8803;48.116;11.590;2023-12-29T02:03:29;2.07;;;1.60;;
17372;SDS011;8803;48.116;11.590;2023-12-29T02:05:35;2.60;;;1.80;;
17372;SDS011;8803;48.116;11.590;2023-12-29T02:07:41;1.77;;;1.60;;
17372;SDS011;8803;48.116;11.590;2023-12-29T02:09:46;2.70;;;2.13;;
17372;SDS011;8803;48.116;11.590;2023-12-29T02:11:53;2.37;;;1.93;;
17372;SDS011;8803;48.116;11.590;2023-12-29T02:14:07;2.93;;;1.93;;
17372;SDS011;8803;48.116;11.590;2023-12-29T02:16:15;2.50;;;2.07;;
17372;SDS011;8803;48.116;11.590;2023-12-29T02:18:29;2.67;;;1.90;;
17372;SDS011;8803;48.116;11.590;2023-12-29T02:20:35;1.97;;;1.60;;
17372;SDS011;8803;48.116;11.590;2023-12-29T02:22:41;2.90;;;1.90;;
17372;SDS011;8803;48.116;11.590;2023-12-29T02:24:48;2.07;;;1.80;;
17372;SDS011;8803;48.116;11.590;2023-12-29T02:26:55;1.87;;;1.67;;
17372;SDS011;8803;48.116;11.590;2023-12-29T02:29:08;2.10;;;1.90;;
17372;SDS011;8803;48.116;11.590;2023-12-29T02:31:17;2.00;;;1.70;;
17372;SDS011;8803;48.116;11.590;2023-12-29T02:33:24;2.07;;;1.50;;
17372;SDS011;8803;48.116;11.590;2023-12-29T02:35:32;2.93;;;1.90;;
17372;SDS011;8803;48.116;11.590;2023-12-29T02:37:44;1.53;;;1.43;;
17372;SDS011;8803;48.116;11.590;2023-12-29T02:39:51;1.70;;;1.50;;
17372;SDS011;8803;48.116;11.590;2023-12-29T02:41:59;2.73;;;1.83;;
17372;SDS011;8803;48.116;11.590;2023-12-29T02:44:15;1.67;;;1.47;;
17372;SDS011;8803;48.116;11.590;2023-12-29T02:46:22;2.73;;;1.60;;
17372;SDS011;8803;48.116;11.590;2023-12-29T02:48:30;2.00;;;1.80;;
17372;SDS011;8803;48.116;11.590;2023-12-29T02:50:35;2.67;;;2.37;;
17372;SDS011;8803;48.116;11.590;2023-12-29T02:52:49;2.20;;;1.90;;
17372;SDS011;8803;48.116;11.590;2023-12-29T02:54:53;2.80;;;2.00;;
17372;SDS011;8803;48.116;11.590;2023-12-29T02:56:58;2.30;;;2.07;;
17372;SDS011;8803;48.116;11.590;2023-12-29T02:59:04;2.77;;;1.90;;
17372;SDS011;8803;48.116;11.590;2023-12-29T03:01:10;2.60;;;2.00;;
17372;SDS011;8803;48.116;11.590;2023-12-29T03:03:15;2.97;;;2.13;;
17372;SDS011;8803;48.116;11.590;2023-12-29T03:05:20;2.00;;;1.60;;
17372;SDS011;8803;48.116;11.590;2023-12-29T03:07:25;2.87;;;1.90;;
17372;SDS011;8803;48.116;11.590;2023-12-29T03:09:30;2.80;;;1.67;;
17372;SDS011;8803;48.116;11.590;2023-12-29T03:11:35;2.00;;;1.80;;
17372;SDS011;8803;48.116;11.590;2023-12-29T03:13:40;4.03;;;1.90;;
17372;SDS011;8803;48.116;11.590;2023-12-29T03:15:53;2.23;;;1.30;;
17372;SDS011;8803;48.116;11.590;2023-12-29T03:17:57;2.47;;;1.77;;
17372;SDS011;8803;48.116;11.590;2023-12-29T03:20:07;2.87;;;1.93;;
17372;SDS011;8803;48.116;11.590;2023-12-29T03:22:24;1.73;;;1.63;;
17372;SDS011;8803;48.116;11.590;2023-12-29T03:24:29;1.87;;;1.63;;
17372;SDS011;8803;48.116;11.590;2023-12-29T03:26:34;2.47;;;1.80;;
17372;SDS011;8803;48.116;11.590;2023-12-29T03:28:47;1.87;;;1.60;;
17372;SDS011;8803;48.116;11.590;2023-12-29T03:30:52;2.20;;;1.70;;
17372;SDS011;8803;48.116;11.590;2023-12-29T03:32:57;2.50;;;1.90;;
17372;SDS011;8803;48.116;11.590;2023-12-29T03:35:04;1.90;;;1.70;;
17372;SDS011;8803;48.116;11.590;2023-12-29T03:37:11;2.37;;;1.90;;
17372;SDS011;8803;48.116;11.590;2023-12-29T03:39:17;2.73;;;1.90;;
17372;SDS011;8803;48.116;11.590;2023-12-29T03:41:30;3.57;;;1.70;;
17372;SDS011;8803;48.116;11.590;2023-12-29T03:43:35;1.60;;;1.50;;
17372;SDS011;8803;48.116;11.590;2023-12-29T03:45:40;1.80;;;1.50;;
17372;SDS011;8803;48.116;11.590;2023-12-29T03:47:46;1.87;;;1.50;;
17372;SDS011;8803;48.116;11.590;2023-12-29T03:49:50;1.90;;;1.60;;
17372;SDS011;8803;48.116;11.590;2023-12-29T03:51:56;1.67;;;1.50;;
17372;SDS011;8803;48.116;11.590;2023-12-29T03:54:01;1.70;;;1.40;;
17372;SDS011;8803;48.116;11.590;2023-12-29T03:56:08;2.30;;;1.90;;
17372;SDS011;8803;48.116;11.590;2023-12-29T03:58:14;3.90;;;2.80;;
17372;SDS011;8803;48.116;11.590;2023-12-29T04:00:21;3.27;;;2.00;;
17372;SDS011;8803;48.116;11.590;2023-12-29T04:02:38;1.77;;;1.67;;
17372;SDS011;8803;48.116;11.590;2023-12-29T04:04:42;2.57;;;2.03;;
17372;SDS011;8803;48.116;11.590;2023-12-29T04:06:47;2.33;;;1.83;;
17372;SDS011;8803;48.116;11.590;2023-12-29T04:09:01;2.47;;;1.70;;
17372;SDS011;8803;48.116;11.590;2023-12-29T04:11:07;1.57;;;1.47;;
17372;SDS011;8803;48.116;11.590;2023-12-29T04:13:20;1.70;;;1.60;;
17372;SDS011;8803;48.116;11.590;2023-12-29T04:15:25;2.30;;;1.70;;
17372;SDS011;8803;48.116;11.590;2023-12-29T04:17:31;1.60;;;1.50;;
17372;SDS011;8803;48.116;11.590;2023-12-29T04:19:36;2.70;;;1.80;;
17372;SDS011;8803;48.116;11.590;2023-12-29T04:21:40;2.30;;;1.60;;
17372;SDS011;8803;48.116;11.590;2023-12-29T04:23:54;1.90;;;1.70;;
17372;SDS011;8803;48.116;11.590;2023-12-29T04:25:58;1.63;;;1.43;;
17372;SDS011;8803;48.116;11.590;2023-12-29T04:28:05;1.87;;;1.73;;
17372;SDS011;8803;48.116;11.590;2023-12-29T04:30:19;2.30;;;1.60;;
17372;SDS011;8803;48.116;11.590;2023-12-29T04:32:23;1.77;;;1.67;;
17372;SDS011;8803;48.116;11.590;2023-12-29T04:34:28;2.40;;;1.60;;
17372;SDS011;8803;48.116;11.590;2023-12-29T04:36:33;1.97;;;1.70;;
17372;SDS011;8803;48.116;11.590;2023-12-29T04:38:46;2.20;;;1.37;;
17372;SDS011;8803;48.116;11.590;2023-12-29T04:40:51;2.80;;;1.93;;
17372;SDS011;8803;48.116;11.590;2023-12-29T04:42:55;2.00;;;1.80;;
17372;SDS011;8803;48.116;11.590;2023-12-29T04:45:00;2.37;;;1.70;;
17372;SDS011;8803;48.116;11.590;2023-12-29T04:47:10;2.20;;;2.00;;
17372;SDS011;8803;48.116;11.590;2023-12-29T04:49:14;2.33;;;2.00;;
17372;SDS011;8803;48.116;11.590;2023-12-29T04:51:19;2.27;;;1.87;;
17372;SDS011;8803;48.116;11.590;2023-12-29T04:53:33;2.40;;;1.73;;
17372;SDS011;8803;48.116;11.590;2023-12-29T04:55:37;3.23;;;2.10;;
17372;SDS011;8803;48.116;11.590;2023-12-29T04:57:44;3.20;;;2.03;;
17372;SDS011;8803;48.116;11.590;2023-12-29T04:59:50;2.20;;;1.70;;
17372;SDS011;8803;48.116;11.590;2023-12-29T05:01:56;2.00;;;1.80;;
17372;SDS011;8803;48.116;11.590;2023-12-29T05:04:00;3.40;;;1.80;;
17372;SDS011;8803;48.116;11.590;2023-12-29T05:06:13;2.73;;;2.20;;
17372;SDS011;8803;48.116;11.590;2023-12-29T05:08:20;2.03;;;1.73;;
17372;SDS011;8803;48.116;11.590;2023-12-29T05:10:25;1.80;;;1.60;;
17372;SDS011;8803;48.116;11.590;2023-12-29T05:12:30;2.30;;;2.00;;
17372;SDS011;8803;48.116;11.590;2023-12-29T05:14:35;3.33;;;1.77;;
17372;SDS011;8803;48.116;11.590;2023-12-29T05:16:39;2.50;;;1.70;;
17372;SDS011;8803;48.116;11.590;2023-12-29T05:18:45;3.93;;;1.97;;
17372;SDS011;8803;48.116;11.590;2023-12-29T05:20:50;1.60;;;1.50;;
17372;SDS011;8803;48.116;11.590;2023-12-29T05:22:55;1.80;;;1.60;;
17372;SDS011;8803;48.116;11.590;2023-12-29T05:25:00;2.33;;;1.77;;
17372;SDS011;8803;48.116;11.590;2023-12-29T05:27:08;2.40;;;2.03;;
17372;SDS011;8803;48.116;11.590;2023-12-29T05:29:14;2.50;;;1.77;;
17372;SDS011;8803;48.116;11.590;2023-12-29T05:31:18;3.07;;;1.93;;
17372;SDS011;8803;48.116;11.590;2023-12-29T05:33:23;2.77;;;1.87;;
17372;SDS011;8803;48.116;11.590;2023-12-29T05:35:37;2.43;;;1.77;;
17372;SDS011;8803;48.116;11.590;2023-12-29T05:37:41;1.70;;;1.60;;
17372;SDS011;8803;48.116;11.590;2023-12-29T05:39:47;3.63;;;1.80;;
17372;SDS011;8803;48.116;11.590;2023-12-29T05:41:52;2.33;;;2.13;;
17372;SDS011;8803;48.116;11.590;2023-12-29T05:43:57;2.33;;;1.70;;
17372;SDS011;8803;48.116;11.590;2023-12-29T05:46:08;4.27;;;2.10;;
17372;SDS011;8803;48.116;11.590;2023-12-29T05:48:14;2.47;;;1.90;;
17372;SDS011;8803;48.116;11.590;2023-12-29T05:50:19;2.33;;;2.03;;
17372;SDS011;8803;48.116;11.590;2023-12-29T05:52:26;2.00;;;1.80;;
17372;SDS011;8803;48.116;11.590;2023-12-29T05:54:31;3.27;;;2.00;;
17372;SDS011;8803;48.116;11.590;2023-12-29T05:56:36;1.93;;;1.70;;
17372;SDS011;8803;48.116;11.590;2023-12-29T05:58:50;2.20;;;1.73;;
17372;SDS011;8803;48.116;11.590;2023-12-29T06:00:57;1.90;;;1.80;;
17372;SDS011;8803;48.116;11.590;2023-12-29T06:03:04;1.97;;;1.70;;
17372;SDS011;8803;48.116;11.590;2023-12-29T06:05:10;1.80;;;1.63;;
17372;SDS011;8803;48.116;11.590;2023-12-29T06:07:15;2.20;;;1.90;;
17372;SDS011;8803;48.116;11.590;2023-12-29T06:09:32;4.90;;;2.10;;
17372;SDS011;8803;48.116;11.590;2023-12-29T06:11:37;2.03;;;1.80;;
17372;SDS011;8803;48.116;11.590;2023-12-29T06:13:42;4.40;;;2.10;;
17372;SDS011;8803;48.116;11.590;2023-12-29T06:15:48;2.20;;;2.00;;
17372;SDS011;8803;48.116;11.590;2023-12-29T06:17:52;2.30;;;1.83;;
17372;SDS011;8803;48.116;11.590;2023-12-29T06:20:00;1.97;;;1.77;;
17372;SDS011;8803;48.116;11.590;2023-12-29T06:22:07;2.03;;;1.83;;
17372;SDS011;8803;48.116;11.590;2023-12-29T06:24:13;1.70;;;1.60;;
17372;SDS011;8803;48.116;11.590;2023-12-29T06:26:18;2.27;;;2.00;;
17372;SDS011;8803;48.116;11.590;2023-12-29T06:28:25;2.13;;;1.67;;
17372;SDS011;8803;48.116;11.590;2023-12-29T06:30:30;2.20;;;1.70;;
17372;SDS011;8803;48.116;11.590;2023-12-29T06:32:35;3.43;;;1.70;;
17372;SDS011;8803;48.116;11.590;2023-12-29T06:34:41;2.70;;;2.17;;
17372;SDS011;8803;48.116;11.590;2023-12-29T06:36:47;2.17;;;1.63;;
17372;SDS011;8803;48.116;11.590;2023-12-29T06:38:52;2.30;;;1.77;;
17372;SDS011;8803;48.116;11.590;2023-12-29T06:40:59;1.93;;;1.70;;
17372;SDS011;8803;48.116;11.590;2023-12-29T06:43:07;1.90;;;1.60;;
17372;SDS011;8803;48.116;11.590;2023-12-29T06:45:11;2.37;;;1.43;;
17372;SDS011;8803;48.116;11.590;2023-12-29T06:47:17;1.57;;;1.47;;
17372;SDS011;8803;48.116;11.590;2023-12-29T06:49:21;1.57;;;1.40;;
17372;SDS011;8803;48.116;11.590;2023-12-29T06:51:26;1.60;;;1.40;;
17372;SDS011;8803;48.116;11.590;2023-12-29T06:53:32;2.40;;;1.77;;
17372;SDS011;8803;48.116;11.590;2023-12-29T06:55:36;2.13;;;1.80;;
17372;SDS011;8803;48.116;11.590;2023-12-29T06:57:42;1.90;;;1.70;;
17372;SDS011;8803;48.116;11.590;2023-12-29T06:59:46;2.70;;;1.40;;
17372;SDS011;8803;48.116;11.590;2023-12-29T07:01:52;2.20;;;1.50;;
17372;SDS011;8803;48.116;11.590;2023-12-29T07:03:57;1.90;;;1.50;;
17372;SDS011;8803;48.116;11.590;2023-12-29T07:06:02;1.50;;;1.40;;
17372;SDS011;8803;48.116;11.590;2023-12-29T07:08:07;2.53;;;1.67;;
17372;SDS011;8803;48.116;11.590;2023-12-29T07:10:14;1.57;;;1.30;;
17372;SDS011;8803;48.116;11.590;2023-12-29T07:12:21;1.90;;;1.57;;
17372;SDS011;8803;48.116;11.590;2023-12-29T07:14:34;1.93;;;1.53;;
17372;SDS011;8803;48.116;11.590;2023-12-29T07:16:41;1.60;;;1.30;;
17372;SDS011;8803;48.116;11.590;2023-12-29T07:18:46;1.70;;;1.60;;
17372;SDS011;8803;48.116;11.590;2023-12-29T07:20:51;1.80;;;1.70;;
17372;SDS011;8803;48.116;11.590;2023-12-29T07:22:56;2.33;;;1.20;;
17372;SDS011;8803;48.116;11.590;2023-12-29T07:25:05;1.90;;;1.50;;
17372;SDS011;8803;48.116;11.590;2023-12-29T07:27:20;2.17;;;1.23;;
17372;SDS011;8803;48.116;11.590;2023-12-29T07:29:25;1.50;;;1.40;;
17372;SDS011;8803;48.116;11.590;2023-12-29T07:31:31;2.03;;;1.43;;
17372;SDS011;8803;48.116;11.590;2023-12-29T07:33:37;2.40;;;1.40;;
17372;SDS011;8803;48.116;11.590;2023-12-29T07:35:45;1.60;;;1.33;;
17372;SDS011;8803;48.116;11.590;2023-12-29T07:37:52;2.00;;;1.20;;
17372;SDS011;8803;48.116;11.590;2023-12-29T07:40:14;1.40;;;1.20;;
17372;SDS011;8803;48.116;11.590;2023-12-29T07:42:20;1.60;;;1.50;;
17372;SDS011;8803;48.116;11.590;2023-12-29T07:44:25;1.70;;;1.40;;
17372;SDS011;8803;48.116;11.590;2023-12-29T07:46:31;1.77;;;1.40;;
17372;SDS011;8803;48.116;11.590;2023-12-29T07:48:36;1.30;;;1.20;;
17372;SDS011;8803;48.116;11.590;2023-12-29T07:50:42;1.40;;;1.30;;
17372;SDS011;8803;48.116;11.590;2023-12-29T07:52:47;1.70;;;1.20;;
17372;SDS011;8803;48.116;11.590;2023-12-29T07:54:53;1.60;;;1.30;;
17372;SDS011;8803;48.116;11.590;2023-12-29T07:56:58;1.57;;;1.30;;
17372;SDS011;8803;48.116;11.590;2023-12-29T07:59:04;2.37;;;1.50;;
17372;SDS011;8803;48.116;11.590;2023-12-29T08:01:08;1.90;;;1.17;;
17372;SDS011;8803;48.116;11.590;2023-12-29T08:03:13;2.17;;;1.30;;
17372;SDS011;8803;48.116;11.590;2023-12-29T08:05:18;1.30;;;1.20;;
17372;SDS011;8803;48.116;11.590;2023-12-29T08:07:23;2.70;;;1.30;;
17372;SDS011;8803;48.116;11.590;2023-12-29T08:09:27;1.87;;;1.33;;
17372;SDS011;8803;48.116;11.590;2023-12-29T08:11:33;1.43;;;1.33;;
17372;SDS011;8803;48.116;11.590;2023-12-29T08:13:38;2.23;;;1.20;;
17372;SDS011;8803;48.116;11.590;2023-12-29T08:15:43;2.43;;;1.60;;
17372;SDS011;8803;48.116;11.590;2023-12-29T08:17:48;1.60;;;1.37;;
17372;SDS011;8803;48.116;11.590;2023-12-29T08:19:53;1.97;;;1.83;;
17372;SDS011;8803;48.116;11.590;2023-12-29T08:21:58;1.90;;;1.43;;
17372;SDS011;8803;48.116;11.590;2023-12-29T08:24:04;3.93;;;2.90;;
17372;SDS011;8803;48.116;11.590;2023-12-29T08:26:10;2.43;;;2.00;;
17372;SDS011;8803;48.116;11.590;2023-12-29T08:28:16;2.30;;;1.80;;
17372;SDS011;8803;48.116;11.590;2023-12-29T08:30:21;3.53;;;1.80;;
17372;SDS011;8803;48.116;11.590;2023-12-29T08:32:26;1.47;;;1.27;;
17372;SDS011;8803;48.116;11.590;2023-12-29T08:34:32;2.03;;;1.30;;
17372;SDS011;8803;48.116;11.590;2023-12-29T08:36:38;1.40;;;1.20;;
17372;SDS011;8803;48.116;11.590;2023-12-29T08:38:51;1.53;;;1.40;;
17372;SDS011;8803;48.116;11.590;2023-12-29T08:40:58;1.50;;;1.40;;
17372;SDS011;8803;48.116;11.590;2023-12-29T08:43:03;1.60;;;1.50;;
17372;SDS011;8803;48.116;11.590;2023-12-29T08:45:09;2.57;;;1.40;;
17372;SDS011;8803;48.116;11.590;2023-12-29T08:47:14;1.80;;;1.70;;
17372;SDS011;8803;48.116;11.590;2023-12-29T08:49:19;1.47;;;1.37;;
17372;SDS011;8803;48.116;11.590;2023-12-29T08:51:24;1.57;;;1.27;;
17372;SDS011;8803;48.116;11.590;2023-12-29T08:53:29;1.53;;;1.40;;
17372;SDS011;8803;48.116;11.590;2023-12-29T08:55:42;1.60;;;1.50;;
17372;SDS011;8803;48.116;11.590;2023-12-29T08:57:49;1.60;;;1.50;;
17372;SDS011;8803;48.116;11.590;2023-12-29T09:00:04;1.60;;;1.50;;
17372;SDS011;8803;48.116;11.590;2023-12-29T09:02:24;1.73;;;1.30;;
17372;SDS011;8803;48.116;11.590;2023-12-29T09:04:32;1.40;;;1.30;;
17372;SDS011;8803;48.116;11.590;2023-12-29T09:06:37;1.70;;;1.57;;
17372;SDS011;8803;48.116;11.590;2023-12-29T09:08:42;1.40;;;1.20;;
17372;SDS011;8803;48.116;11.590;2023-12-29T09:10:47;1.30;;;1.20;;
17372;SDS011;8803;48.116;11.590;2023-12-29T09:12:51;1.47;;;1.30;;
17372;SDS011;8803;48.116;11.590;2023-12-29T09:14:56;1.00;;;0.90;;
17372;SDS011;8803;48.116;11.590;2023-12-29T09:17:00;3.40;;;1.50;;
17372;SDS011;8803;48.116;11.590;2023-12-29T09:19:06;1.50;;;1.30;;
17372;SDS011;8803;48.116;11.590;2023-12-29T09:21:11;1.43;;;1.30;;
17372;SDS011;8803;48.116;11.590;2023-12-29T09:23:15;1.40;;;1.30;;
17372;SDS011;8803;48.116;11.590;2023-12-29T09:25:22;1.73;;;1.30;;
17372;SDS011;8803;48.116;11.590;2023-12-29T09:27:27;1.60;;;1.50;;
17372;SDS011;8803;48.116;11.590;2023-12-29T09:29:32;1.90;;;1.37;;
17372;SDS011;8803;48.116;11.590;2023-12-29T09:31:36;1.87;;;1.60;;
17372;SDS011;8803;48.116;11.590;2023-12-29T09:33:41;2.23;;;1.30;;
17372;SDS011;8803;48.116;11.590;2023-12-29T09:35:46;1.50;;;1.40;;
17372;SDS011;8803;48.116;11.590;2023-12-29T09:37:53;1.30;;;1.13;;
17372;SDS011;8803;48.116;11.590;2023-12-29T09:39:57;2.70;;;1.67;;
17372;SDS011;8803;48.116;11.590;2023-12-29T09:42:04;1.70;;;1.40;;
17372;SDS011;8803;48.116;11.590;2023-12-29T09:44:13;2.27;;;1.40;;
17372;SDS011;8803;48.116;11.590;2023-12-29T09:46:21;1.73;;;1.40;;
17372;SDS011;8803;48.116;11.590;2023-12-29T09:48:27;2.30;;;1.40;;
17372;SDS011;8803;48.116;11.590;2023-12-29T09:50:34;1.40;;;1.30;;
17372;SDS011;8803;48.116;11.590;2023-12-29T09:52:41;1.80;;;1.13;;
17372;SDS011;8803;48.116;11.590;2023-12-29T09:54:46;2.13;;;1.50;;
17372;SDS011;8803;48.116;11.590;2023-12-29T09:56:53;1.30;;;1.10;;
17372;SDS011;8803;48.116;11.590;2023-12-29T09:58:59;2.57;;;1.43;;
17372;SDS011;8803;48.116;11.590;2023-12-29T10:01:05;1.80;;;1.60;;
17372;SDS011;8803;48.116;11.590;2023-12-29T10:03:10;1.50;;;1.40;;
17372;SDS011;8803;48.116;11.590;2023-12-29T10:05:16;2.50;;;1.70;;
17372;SDS011;8803;48.116;11.590;2023-12-29T10:07:23;2.30;;;1.60;;
17372;SDS011;8803;48.116;11.590;2023-12-29T10:09:28;1.83;;;1.60;;
17372;SDS011;8803;48.116;11.590;2023-12-29T10:11:35;1.60;;;1.50;;
17372;SDS011;8803;48.116;11.590;2023-12-29T10:13:43;1.60;;;1.23;;
17372;SDS011;8803;48.116;11.590;2023-12-29T10:15:53;2.10;;;1.63;;
17372;SDS011;8803;48.116;11.590;2023-12-29T10:18:07;1.30;;;1.20;;
17372;SDS011;8803;48.116;11.590;2023-12-29T10:20:25;1.23;;;1.13;;
17372;SDS011;8803;48.116;11.590;2023-12-29T10:22:34;1.53;;;1.10;;
17372;SDS011;8803;48.116;11.590;2023-12-29T10:24:50;1.53;;;1.10;;
17372;SDS011;8803;48.116;11.590;2023-12-29T10:26:56;1.67;;;1.30;;
17372;SDS011;8803;48.116;11.590;2023-12-29T10:29:02;1.67;;;1.20;;
17372;SDS011;8803;48.116;11.590;2023-12-29T10:31:08;1.53;;;1.13;;
17372;SDS011;8803;48.116;11.590;2023-12-29T10:33:22;1.47;;;1.23;;
17372;SDS011;8803;48.116;11.590;2023-12-29T10:35:29;1.27;;;1.17;;
17372;SDS011;8803;48.116;11.590;2023-12-29T10:37:37;1.67;;;1.37;;
17372;SDS011;8803;48.116;11.590;2023-12-29T10:39:54;1.10;;;1.00;;
17372;SDS011;8803;48.116;11.590;2023-12-29T10:42:07;1.77;;;1.10;;
17372;SDS011;8803;48.116;11.590;2023-12-29T10:44:13;1.00;;;0.93;;
17372;SDS011;8803;48.116;11.590;2023-12-29T10:46:19;1.30;;;1.20;;
17372;SDS011;8803;48.116;11.590;2023-12-29T10:48:32;1.03;;;0.90;;
17372;SDS011;8803;48.116;11.590;2023-12-29T10:50:44;1.23;;;1.10;;
17372;SDS011;8803;48.116;11.590;2023-12-29T10:53:13;0.93;;;0.87;;
17372;SDS011;8803;48.116;11.590;2023-12-29T10:55:19;2.10;;;1.17;;
17372;SDS011;8803;48.116;11.590;2023-12-29T10:57:25;1.00;;;0.90;;
17372;SDS011;8803;48.116;11.590;2023-12-29T10:59:29;1.87;;;0.93;;
17372;SDS011;8803;48.116;11.590;2023-12-29T11:03:48;0.73;;;0.73;;
17372;SDS011;8803;48.116;11.590;2023-12-29T11:06:02;1.40;;;0.90;;
17372;SDS011;8803;48.116;11.590;2023-12-29T11:08:10;1.13;;;0.80;;
17372;SDS011;8803;48.116;11.590;2023-12-29T11:10:21;2.10;;;1.10;;
17372;SDS011;8803;48.116;11.590;2023-12-29T11:12:28;1.37;;;0.90;;
17372;SDS011;8803;48.116;11.590;2023-12-29T11:14:37;0.90;;;0.80;;
17372;SDS011;8803;48.116;11.590;2023-12-29T11:16:44;0.97;;;0.80;;
17372;SDS011;8803;48.116;11.590;2023-12-29T11:18:59;1.03;;;0.97;;
17372;SDS011;8803;48.116;11.590;2023-12-29T11:21:05;1.73;;;1.00;;
17372;SDS011;8803;48.116;11.590;2023-12-29T11:23:10;1.13;;;1.00;;
17372;SDS011;8803;48.116;11.590;2023-12-29T11:25:16;1.70;;;1.00;;
17372;SDS011;8803;48.116;11.590;2023-12-29T11:27:21;1.00;;;0.80;;
17372;SDS011;8803;48.116;11.590;2023-12-29T11:29:28;1.00;;;0.73;;
17372;SDS011;8803;48.116;11.590;2023-12-29T11:31:33;1.10;;;0.90;;
17372;SDS011;8803;48.116;11.590;2023-12-29T11:33:39;0.80;;;0.80;;
17372;SDS011;8803;48.116;11.590;2023-12-29T11:35:49;1.20;;;1.10;;
17372;SDS011;8803;48.116;11.590;2023-12-29T11:38:08;1.40;;;1.10;;
17372;SDS011;8803;48.116;11.590;2023-12-29T11:40:19;1.30;;;1.13;;
17372;SDS011;8803;48.116;11.590;2023-12-29T11:42:29;1.17;;;1.07;;
17372;SDS011;8803;48.116;11.590;2023-12-29T11:44:36;1.23;;;0.90;;
17372;SDS011;8803;48.116;11.590;2023-12-29T11:46:43;1.10;;;1.00;;
17372;SDS011;8803;48.116;11.590;2023-12-29T11:48:54;1.80;;;1.20;;
17372;SDS011;8803;48.116;11.590;2023-12-29T11:51:01;1.30;;;1.20;;
17372;SDS011;8803;48.116;11.590;2023-12-29T11:53:30;0.90;;;0.90;;
17372;SDS011;8803;48.116;11.590;2023-12-29T11:55:35;1.47;;;1.37;;
17372;SDS011;8803;48.116;11.590;2023-12-29T11:57:41;1.50;;;1.23;;
17372;SDS011;8803;48.116;11.590;2023-12-29T11:59:54;1.30;;;1.20;;
17372;SDS011;8803;48.116;11.590;2023-12-29T12:02:00;1.47;;;1.10;;
17372;SDS011;8803;48.116;11.590;2023-12-29T12:04:12;1.33;;;1.10;;
17372;SDS011;8803;48.116;11.590;2023-12-29T12:06:39;1.40;;;1.13;;
17372;SDS011;8803;48.116;11.590;2023-12-29T12:08:52;1.23;;;1.10;;
17372;SDS011;8803;48.116;11.590;2023-12-29T12:13:46;1.00;;;0.80;;
17372;SDS011;8803;48.116;11.590;2023-12-29T12:15:53;1.73;;;1.10;;
17372;SDS011;8803;48.116;11.590;2023-12-29T12:17:57;1.37;;;1.00;;
17372;SDS011;8803;48.116;11.590;2023-12-29T12:20:07;1.07;;;0.97;;
17372;SDS011;8803;48.116;11.590;2023-12-29T12:22:13;1.33;;;1.00;;
17372;SDS011;8803;48.116;11.590;2023-12-29T12:24:29;1.60;;;1.00;;
17372;SDS011;8803;48.116;11.590;2023-12-29T12:26:34;2.37;;;2.03;;
17372;SDS011;8803;48.116;11.590;2023-12-29T12:28:40;2.50;;;1.70;;
17372;SDS011;8803;48.116;11.590;2023-12-29T12:30:47;1.30;;;1.20;;
17372;SDS011;8803;48.116;11.590;2023-12-29T12:32:57;1.47;;;1.30;;
17372;SDS011;8803;48.116;11.590;2023-12-29T12:35:04;1.30;;;0.90;;
17372;SDS011;8803;48.116;11.590;2023-12-29T12:37:26;1.10;;;0.90;;
17372;SDS011;8803;48.116;11.590;2023-12-29T12:39:38;1.20;;;1.10;;
17372;SDS011;8803;48.116;11.590;2023-12-29T12:41:43;1.17;;;1.07;;
17372;SDS011;8803;48.116;11.590;2023-12-29T12:43:54;1.10;;;1.00;;
17372;SDS011;8803;48.116;11.590;2023-12-29T12:46:03;1.50;;;0.90;;
17372;SDS011;8803;48.116;11.590;2023-12-29T12:48:20;1.20;;;1.10;;
17372;SDS011;8803;48.116;11.590;2023-12-29T12:50:27;1.10;;;1.00;;
17372;SDS011;8803;48.116;11.590;2023-12-29T12:52:32;1.10;;;1.00;;